Lewistown Municipal Airport
KLWT : now visible

Airfield :











YOU CAN JOIN US ON...

 
LOGIN :

Register | Disclaimer

   EN    FR    IT 

 









Legend :    VFR   Marginal VFR   IFR   Intensive IFR   Very Intensive IFR
Visi :
Ceiling :
>= 8 km
>= 3000ft
5 to 8 km
1000 to 3000 ft
1500m to 5 km
500 to 1000 ft
800 to 1500m
200 to 500 ft
< 800m
< 200 ft
Symbols :   Thunderstorms  Fog  Heavy snow  Heavy precipitations  Wind > 20 kt






- Airport Elevation : 4170 ft
- IATA code : LWT


KLWT - Lewistown Municipal

CURRENT METAR :
  • 080654Z AUTO 26004KT 10SM OVC070 04/M02 A2968 RMK AO2 RAB16E33 SLP054 P0000 T00391017 400890039

EXPIRED METARs :
  • 080554Z AUTO 23010KT 10SM OVC075 06/M02 A2969 RMK AO2 SLP055 T00561017 10061 20039 50001
  • 080454Z AUTO 23011KT 10SM BKN070 OVC100 05/M02 A2969 RMK AO2 SLP057 T00501017

TAF KLWT
Valid from the 08 at 06:00 until the 09 at 06:00 UTC


080525Z 0806/0906 23011KT P6SM VCSH SCT045 OVC070
FM081400 31007KT 6SM BR SCT025 OVC060
TEMPO 0814/0815 4SM -SN BKN025
FM081500 33008KT 6SM -SN SCT020 OVC040
FM081700 34015G25KT 1SM -SN BLSN OVC009
FM082200 32015G25KT P6SM SCT010 OVC020
PROB30 0822/0823 4SM -SN BKN010
FM082300 32009KT P6SM SCT012 BKN023



MET'MAP, your aeronautical weather chart ! - Copyright ORBIFLY December 2007 - Disclaimer

ORBIFLY MET'MAP TEAM :

Programming & Development : Alexandra Zaïnal
Concept & original design : Baudouin d'Aumeries
Assistance for programming : Marc-Olivier Méhu
Technical & hardware support : Manuel Goepfert

Contact : metmap@orbifly.com




SOURCES & CREDITS :

   NOAA       Earth
Advisory